createdAt,value
2023-03-10T00:01:58.895Z,25.40
2023-03-10T00:04:31.248Z,26.10
2023-03-10T00:07:03.393Z,26.60
2023-03-10T00:09:35.761Z,24.60
2023-03-10T00:12:09.598Z,19.30
2023-03-10T00:14:42.023Z,24.40
2023-03-10T00:17:14.111Z,25.90
2023-03-10T00:19:46.467Z,24.70
2023-03-10T00:22:18.597Z,26.10
2023-03-10T00:24:51.028Z,25.70
2023-03-10T00:27:23.084Z,24.30
2023-03-10T00:29:55.998Z,27.50
2023-03-10T00:32:28.377Z,19.20
2023-03-10T00:35:00.653Z,20.80
2023-03-10T00:37:32.672Z,24.60
2023-03-10T00:40:06.832Z,24.10
2023-03-10T00:42:39.644Z,24.70
2023-03-10T00:45:13.268Z,25.20
2023-03-10T00:47:47.190Z,27.10
2023-03-10T00:50:19.830Z,25.80
2023-03-10T00:52:52.436Z,26.60
2023-03-10T00:55:24.718Z,25.10
2023-03-10T00:57:57.103Z,28.10
2023-03-10T01:00:29.726Z,28.00
2023-03-10T01:03:03.072Z,23.80
2023-03-10T01:05:35.410Z,30.10
2023-03-10T01:08:07.886Z,27.10
2023-03-10T01:10:40.903Z,26.90
2023-03-10T01:13:13.587Z,28.50
2023-03-10T01:15:48.072Z,25.00
2023-03-10T01:18:21.685Z,28.00
2023-03-10T01:20:54.613Z,26.10
2023-03-10T01:23:28.300Z,27.30
2023-03-10T01:26:00.858Z,27.90
2023-03-10T01:28:34.266Z,28.30
2023-03-10T01:31:09.336Z,28.70
2023-03-10T01:33:43.145Z,29.10
2023-03-10T01:38:51.220Z,28.70
2023-03-10T01:41:24.332Z,27.40
2023-03-10T01:43:57.795Z,27.80
2023-03-10T01:46:49.777Z,29.60
2023-03-10T01:49:39.868Z,29.40
2023-03-10T01:52:16.522Z,28.80
2023-03-10T01:54:52.589Z,29.50
2023-03-10T01:57:28.919Z,26.70
2023-03-10T02:00:01.900Z,29.40
2023-03-10T02:02:39.189Z,28.90
2023-03-10T02:05:12.472Z,30.20
2023-03-10T02:07:45.851Z,29.30
2023-03-10T02:10:19.331Z,28.30
2023-03-10T02:12:54.420Z,29.30
2023-03-10T02:15:27.282Z,28.10
2023-03-10T02:18:00.388Z,19.70
2023-03-10T02:20:44.052Z,23.90
2023-03-10T02:23:24.815Z,27.10
2023-03-10T02:26:02.704Z,29.20
2023-03-10T02:28:35.251Z,28.90
2023-03-10T02:31:08.524Z,30.40
2023-03-10T02:36:23.086Z,28.20
2023-03-10T02:38:55.810Z,28.10
2023-03-10T02:41:31.974Z,29.50
2023-03-10T02:44:07.746Z,28.50
2023-03-10T02:46:40.775Z,30.00
2023-03-10T02:49:13.810Z,28.40
2023-03-10T02:51:49.120Z,28.40
2023-03-10T02:54:23.323Z,29.50
2023-03-10T02:56:55.562Z,29.80
2023-03-10T02:59:27.922Z,28.70
2023-03-10T03:02:00.027Z,30.70
2023-03-10T03:04:32.322Z,31.80
2023-03-10T03:07:04.625Z,31.40
2023-03-10T03:09:38.042Z,30.70
2023-03-10T03:12:11.438Z,32.30
2023-03-10T03:17:14.481Z,28.60
2023-03-10T03:19:46.784Z,29.50
2023-03-10T03:22:19.269Z,31.10
2023-03-10T03:24:51.437Z,30.90
2023-03-10T03:27:23.839Z,30.80
2023-03-10T03:29:56.104Z,30.30
2023-03-10T03:32:28.432Z,32.40
2023-03-10T03:35:01.457Z,28.60
2023-03-10T03:37:33.723Z,28.60
2023-03-10T03:40:12.976Z,28.70
2023-03-10T03:42:49.059Z,26.80
2023-03-10T03:45:24.341Z,26.90
2023-03-10T03:48:00.117Z,28.20
2023-03-10T03:50:33.371Z,26.20
2023-03-10T03:53:10.343Z,27.00
2023-03-10T03:55:44.191Z,25.10
2023-03-10T03:58:16.990Z,22.20
2023-03-10T04:00:51.678Z,16.40
2023-03-10T04:03:24.608Z,21.80
2023-03-10T04:05:56.942Z,20.10
2023-03-10T04:08:29.235Z,22.30
2023-03-10T04:11:01.928Z,19.80
2023-03-10T04:13:34.801Z,18.80
2023-03-10T04:16:08.190Z,17.20
2023-03-10T04:18:42.537Z,17.00
2023-03-10T04:21:17.784Z,16.40
2023-03-10T04:23:51.170Z,16.70
2023-03-10T04:26:26.490Z,15.20
2023-03-10T04:28:59.470Z,12.50
2023-03-10T04:31:32.508Z,13.70
2023-03-10T04:34:05.825Z,13.00
2023-03-10T04:36:38.229Z,12.90
2023-03-10T04:39:11.430Z,12.30
2023-03-10T04:41:44.711Z,13.40
2023-03-10T04:44:29.729Z,11.80
2023-03-10T04:47:03.281Z,10.80
2023-03-10T04:49:35.914Z,11.30
2023-03-10T04:52:08.737Z,11.00
2023-03-10T04:54:40.982Z,10.60
2023-03-10T04:57:13.111Z,10.20
2023-03-10T04:59:46.184Z,9.60
2023-03-10T05:02:18.421Z,10.70
2023-03-10T05:04:50.471Z,9.80
2023-03-10T05:07:23.031Z,9.90
2023-03-10T05:09:56.798Z,10.70
2023-03-10T05:12:29.276Z,11.20
2023-03-10T05:15:01.400Z,13.10
2023-03-10T05:17:33.819Z,13.00
2023-03-10T05:20:08.177Z,13.20
2023-03-10T05:22:41.520Z,13.60
2023-03-10T05:25:16.990Z,14.00
2023-03-10T05:27:49.319Z,13.50
2023-03-10T05:30:22.546Z,14.80
2023-03-10T05:35:25.817Z,15.00
2023-03-10T05:37:58.365Z,15.00
2023-03-10T05:40:30.796Z,16.20
2023-03-10T05:43:05.109Z,9.70
2023-03-10T05:45:37.261Z,15.70
2023-03-10T05:48:12.589Z,16.20
2023-03-10T05:50:44.606Z,16.60
2023-03-10T05:53:17.003Z,18.60
2023-03-10T05:55:49.270Z,20.90
2023-03-10T05:58:21.541Z,20.40
2023-03-10T06:00:54.206Z,18.00
2023-03-10T06:03:28.940Z,17.00
2023-03-10T06:06:13.776Z,17.00
2023-03-10T06:08:47.772Z,18.40
2023-03-10T06:11:20.251Z,15.70
2023-03-10T06:13:52.452Z,15.40
2023-03-10T06:16:24.900Z,15.60
2023-03-10T06:18:58.553Z,14.50
2023-03-10T06:24:03.487Z,12.20
2023-03-10T06:29:06.196Z,11.20
2023-03-10T06:31:38.737Z,12.00
2023-03-10T06:34:10.861Z,10.90
2023-03-10T06:36:43.673Z,10.30
2023-03-10T06:39:15.785Z,11.00
2023-03-10T06:41:47.814Z,10.50
2023-03-10T06:44:20.159Z,9.70
2023-03-10T06:46:52.503Z,10.10
2023-03-10T06:49:24.914Z,10.30
2023-03-10T06:51:57.083Z,10.60
2023-03-10T06:54:29.321Z,10.20
2023-03-10T06:57:01.670Z,11.60
2023-03-10T06:59:35.866Z,11.90
2023-03-10T07:02:09.431Z,12.50
2023-03-10T07:07:13.867Z,12.00
2023-03-10T07:09:46.556Z,11.50
2023-03-10T07:12:18.797Z,12.60
2023-03-10T07:14:50.999Z,11.30
2023-03-10T07:17:23.780Z,10.20
2023-03-10T07:19:56.414Z,10.10
2023-03-10T07:22:28.743Z,9.40
2023-03-10T07:25:01.555Z,10.20
2023-03-10T07:27:34.927Z,9.00
2023-03-10T07:30:08.421Z,8.70
2023-03-10T07:35:12.628Z,9.10
2023-03-10T07:37:44.970Z,8.40
2023-03-10T07:40:17.535Z,9.20
2023-03-10T07:42:49.756Z,8.60
2023-03-10T07:45:22.659Z,8.90
2023-03-10T07:47:55.839Z,8.10
2023-03-10T07:50:28.451Z,9.40
2023-03-10T07:53:01.048Z,9.80
2023-03-10T07:55:33.480Z,9.50
2023-03-10T07:58:05.761Z,10.20
2023-03-10T08:00:38.707Z,9.80
2023-03-10T08:03:11.351Z,9.80
2023-03-10T08:05:45.121Z,9.80
2023-03-10T08:10:47.733Z,8.80
2023-03-10T08:13:20.107Z,9.10
2023-03-10T08:15:52.654Z,9.70
2023-03-10T08:18:26.484Z,8.60
2023-03-10T08:20:59.553Z,7.80
2023-03-10T08:23:32.093Z,8.60
2023-03-10T08:26:06.757Z,7.50
2023-03-10T08:28:39.340Z,8.40
2023-03-10T08:31:13.621Z,7.40
2023-03-10T08:33:47.252Z,6.60
2023-03-10T08:36:21.424Z,7.10
2023-03-10T08:38:55.780Z,6.60
2023-03-10T08:41:30.247Z,5.30
2023-03-10T08:44:02.638Z,5.00
2023-03-10T08:46:36.241Z,4.90
2023-03-10T08:49:08.908Z,3.90
2023-03-10T08:54:18.511Z,2.90
2023-03-10T08:56:51.072Z,2.40
2023-03-10T08:59:23.900Z,2.30
2023-03-10T09:01:56.575Z,2.00
2023-03-10T09:04:28.701Z,1.90
2023-03-10T09:07:01.197Z,2.00
2023-03-10T09:09:33.470Z,2.40
2023-03-10T09:12:07.266Z,2.00
2023-03-10T09:14:39.756Z,2.00
2023-03-10T09:17:12.150Z,1.40
2023-03-10T09:19:44.322Z,1.60
2023-03-10T09:22:16.727Z,1.80
2023-03-10T09:24:49.240Z,1.80
2023-03-10T09:27:21.350Z,1.50
2023-03-10T09:29:53.499Z,2.10
2023-03-10T09:32:26.332Z,1.70
2023-03-10T09:34:58.543Z,1.30
2023-03-10T09:37:31.337Z,1.80
2023-03-10T09:40:06.390Z,1.70
2023-03-10T09:42:45.232Z,1.50
2023-03-10T09:45:28.181Z,1.60
2023-03-10T09:48:19.658Z,1.40
2023-03-10T09:50:53.832Z,1.60
2023-03-10T09:53:53.751Z,1.70
2023-03-10T09:56:31.876Z,1.60
2023-03-10T09:59:10.670Z,1.10
2023-03-10T10:01:47.118Z,1.30
2023-03-10T10:04:23.351Z,1.50
2023-03-10T10:06:55.972Z,1.40
2023-03-10T10:09:42.573Z,1.60
2023-03-10T10:12:17.819Z,1.30
2023-03-10T10:14:57.265Z,1.40
2023-03-10T10:17:52.306Z,1.70
2023-03-10T10:20:30.431Z,1.50
2023-03-10T10:23:04.941Z,1.80
2023-03-10T10:25:42.335Z,1.50
2023-03-10T10:28:26.189Z,1.90
2023-03-10T10:33:57.766Z,0.90
2023-03-10T10:36:32.401Z,1.40
2023-03-10T10:39:06.677Z,1.20
2023-03-10T10:41:39.343Z,1.50
2023-03-10T10:44:20.474Z,1.10
2023-03-10T10:46:57.924Z,1.10
2023-03-10T10:49:34.125Z,1.10
2023-03-10T10:52:20.241Z,1.10
2023-03-10T10:54:57.818Z,1.30
2023-03-10T10:57:34.198Z,1.00
2023-03-10T11:00:28.818Z,1.30
2023-03-10T11:03:01.163Z,1.00
2023-03-10T11:05:39.185Z,1.40
2023-03-10T11:08:33.042Z,1.30
2023-03-10T11:11:14.723Z,1.80
2023-03-10T11:14:01.975Z,1.50
2023-03-10T11:16:44.070Z,1.50
2023-03-10T11:19:23.483Z,1.20
2023-03-10T11:22:00.987Z,1.40
2023-03-10T11:24:41.167Z,1.10
2023-03-10T11:27:24.104Z,1.70
2023-03-10T11:30:11.800Z,1.60
2023-03-10T11:33:01.083Z,1.20
2023-03-10T11:35:39.098Z,1.30
2023-03-10T11:38:22.687Z,1.60
2023-03-10T11:40:57.174Z,1.20
2023-03-10T11:43:39.175Z,1.50
2023-03-10T11:46:18.347Z,1.20
2023-03-10T11:48:59.724Z,1.40
2023-03-10T11:51:39.222Z,1.70
2023-03-10T11:54:21.784Z,1.20
2023-03-10T11:56:57.649Z,1.30
2023-03-10T11:59:33.659Z,1.70
2023-03-10T12:02:13.554Z,1.30
2023-03-10T12:04:51.062Z,1.40
2023-03-10T12:07:28.876Z,1.40
2023-03-10T12:10:04.297Z,1.30
2023-03-10T12:12:39.223Z,1.40
2023-03-10T12:15:20.052Z,1.70
2023-03-10T12:17:54.215Z,1.30
2023-03-10T12:20:32.800Z,1.40
2023-03-10T12:23:40.539Z,1.30
2023-03-10T12:26:13.012Z,1.20
2023-03-10T12:28:45.922Z,1.40
2023-03-10T12:31:48.354Z,1.20
2023-03-10T12:34:23.689Z,1.40
2023-03-10T12:37:03.949Z,1.10
2023-03-10T12:39:40.441Z,1.40
2023-03-10T12:42:35.506Z,1.30
2023-03-10T12:45:24.605Z,1.50
2023-03-10T12:48:05.089Z,1.30
2023-03-10T12:50:48.067Z,1.50
2023-03-10T12:53:34.459Z,1.30
2023-03-10T12:56:39.980Z,1.30
2023-03-10T12:59:19.326Z,1.50
2023-03-10T13:01:56.427Z,1.80
2023-03-10T13:04:30.181Z,1.40
2023-03-10T13:07:04.499Z,1.30
2023-03-10T13:09:43.311Z,1.30
2023-03-10T13:12:25.788Z,1.50
2023-03-10T13:15:01.680Z,1.30
2023-03-10T13:17:35.920Z,1.40
2023-03-10T13:20:13.844Z,1.30
2023-03-10T13:22:55.824Z,1.70
2023-03-10T13:25:28.787Z,1.40
2023-03-10T13:28:09.635Z,1.60
2023-03-10T13:30:42.118Z,1.50
2023-03-10T13:33:25.726Z,2.00
2023-03-10T13:35:59.021Z,1.50
2023-03-10T13:41:06.163Z,1.40
2023-03-10T13:43:40.975Z,1.30
2023-03-10T13:46:19.093Z,1.70
2023-03-10T13:48:52.762Z,2.00
2023-03-10T13:51:26.977Z,2.00
2023-03-10T13:54:12.682Z,1.40
2023-03-10T13:56:47.747Z,1.70
2023-03-10T13:59:23.468Z,1.90
2023-03-10T14:02:14.495Z,1.80
2023-03-10T14:04:49.473Z,2.10
2023-03-10T14:07:23.276Z,4.00
2023-03-10T14:10:16.390Z,5.00
2023-03-10T14:12:50.089Z,4.90
2023-03-10T14:15:33.663Z,4.70
2023-03-10T14:18:22.198Z,4.90
2023-03-10T14:20:54.583Z,4.60
2023-03-10T14:23:37.064Z,4.80
2023-03-10T14:26:16.778Z,4.20
2023-03-10T14:28:49.298Z,2.10
2023-03-10T14:31:25.268Z,1.60
2023-03-10T14:33:57.683Z,1.80
2023-03-10T14:36:29.992Z,1.50
2023-03-10T14:39:03.537Z,1.70
